Arden, North Carolina
Current Conditions -  °F | °C
As of 4:54 PM on Saturday 20 Dec 2014 (Local Time) from KAVL Reporting Station
Overcast Overcast  
Wind Chill: 38°   Ceiling: 1600
Heat Index: 42°   Visibility: 10mi
Dew Point: 37°   Wind: 7mph
Humidity: 82%   Direction: 160°SSE
Pressure: 30.16"   Gusts: NA
Location:  35.47°N, 82.52°W
Report Text: KAVL 202154Z 16006KT 10SM BKN016 OVC049 06/03 A3016 RMK AO2 SLP214 T00560028
Loading
Personal Weather Stations






























Interactive Weather Map New forecast layout! Learn more

10-Day Weather Forecast

Advertisements
Track Severe Weather on mobile